createdAt,value
2018-08-17T00:00:32.091Z,101200.88
2018-08-17T00:03:00.768Z,101204.78
2018-08-17T00:05:29.576Z,101200.81
2018-08-17T00:07:58.266Z,101197.41
2018-08-17T00:10:26.968Z,101195.81
2018-08-17T00:12:55.635Z,101199.00
2018-08-17T00:15:24.288Z,101204.67
2018-08-17T00:17:53.057Z,101206.33
2018-08-17T00:20:21.712Z,101211.35
2018-08-17T00:22:50.361Z,101219.48
2018-08-17T00:25:19.014Z,101215.74
2018-08-17T00:27:47.723Z,101213.77
2018-08-17T00:30:16.375Z,101213.27
2018-08-17T00:32:45.020Z,101214.94
2018-08-17T00:35:13.692Z,101212.75
2018-08-17T00:37:42.331Z,101210.53
2018-08-17T00:40:11.003Z,101214.59
2018-08-17T00:42:39.635Z,101211.83
2018-08-17T00:45:08.434Z,101220.41
2018-08-17T00:47:37.085Z,101218.06
2018-08-17T00:50:06.405Z,101215.63
2018-08-17T00:52:35.052Z,101221.34
2018-08-17T00:55:03.741Z,101221.48
2018-08-17T00:57:32.365Z,101231.89
2018-08-17T01:00:01.013Z,101231.89
2018-08-17T01:02:29.651Z,101241.45
2018-08-17T01:04:58.307Z,101227.97
2018-08-17T01:07:27.020Z,101238.20
2018-08-17T01:09:55.673Z,101236.38
2018-08-17T01:12:24.323Z,101240.59
2018-08-17T01:14:52.974Z,101237.37
2018-08-17T01:17:21.632Z,101238.28
2018-08-17T01:19:50.340Z,101246.09
2018-08-17T01:22:18.963Z,101248.36
2018-08-17T01:24:47.616Z,101248.27
2018-08-17T01:27:16.245Z,101246.26
2018-08-17T01:29:44.895Z,101250.67
2018-08-17T01:32:13.514Z,101245.06
2018-08-17T01:34:42.162Z,101244.97
2018-08-17T01:37:10.778Z,101246.78
2018-08-17T01:39:39.437Z,101243.02
2018-08-17T01:42:08.100Z,101246.94
2018-08-17T01:44:36.749Z,101250.83
2018-08-17T01:47:05.375Z,101249.73
2018-08-17T01:49:34.017Z,101240.70
2018-08-17T01:52:02.642Z,101253.12
2018-08-17T01:54:31.288Z,101245.92
2018-08-17T01:56:59.921Z,101252.83
2018-08-17T01:59:28.626Z,101251.95
2018-08-17T02:01:57.261Z,101245.56
2018-08-17T02:04:25.916Z,101247.48
2018-08-17T02:06:54.569Z,101251.63
2018-08-17T02:09:23.227Z,101255.77
2018-08-17T02:11:51.862Z,101254.60
2018-08-17T02:14:20.509Z,101246.57
2018-08-17T02:16:49.138Z,101252.09
2018-08-17T02:19:17.833Z,101253.14
2018-08-17T02:21:46.479Z,101253.14
2018-08-17T02:24:15.176Z,101248.13
2018-08-17T02:26:43.831Z,101246.86
2018-08-17T02:29:12.495Z,101245.72
2018-08-17T02:31:41.125Z,101258.14
2018-08-17T02:34:09.756Z,101256.47
2018-08-17T02:36:38.407Z,101255.09
2018-08-17T02:39:07.808Z,101253.63
2018-08-17T02:41:36.496Z,101251.88
2018-08-17T02:44:05.128Z,101253.19
2018-08-17T02:46:33.778Z,101245.92
2018-08-17T02:49:02.422Z,101248.55
2018-08-17T02:51:31.082Z,101241.45
2018-08-17T02:53:59.722Z,101241.08
2018-08-17T02:56:28.483Z,101243.59
2018-08-17T02:58:57.129Z,101247.19
2018-08-17T03:01:25.788Z,101249.57
2018-08-17T03:03:54.556Z,101252.82
2018-08-17T03:06:23.227Z,101247.77
2018-08-17T03:08:51.851Z,101248.48
2018-08-17T03:11:20.500Z,101254.67
2018-08-17T03:13:49.254Z,101250.95
2018-08-17T03:16:17.910Z,101255.78
2018-08-17T03:18:46.666Z,101254.53
2018-08-17T03:21:15.334Z,101259.45
2018-08-17T03:23:43.982Z,101254.31
2018-08-17T03:26:12.679Z,101251.80
2018-08-17T03:28:41.330Z,101253.66
2018-08-17T03:31:10.041Z,101248.16
2018-08-17T03:33:38.676Z,101257.51
2018-08-17T03:36:07.351Z,101253.62
2018-08-17T03:38:35.987Z,101250.72
2018-08-17T03:41:04.662Z,101250.84
2018-08-17T03:43:33.293Z,101253.45
2018-08-17T03:46:01.973Z,101256.05
2018-08-17T03:48:30.668Z,101260.19
2018-08-17T03:50:59.337Z,101263.54
2018-08-17T03:53:27.971Z,101266.30
2018-08-17T03:55:56.643Z,101272.39
2018-08-17T03:58:25.289Z,101277.13
2018-08-17T04:00:54.043Z,101277.76
2018-08-17T04:03:22.689Z,101284.94
2018-08-17T04:05:51.384Z,101282.56
2018-08-17T04:08:20.007Z,101287.23
2018-08-17T04:10:48.677Z,101285.27
2018-08-17T04:13:17.333Z,101283.52
2018-08-17T04:15:46.037Z,101283.21
2018-08-17T04:18:14.681Z,101306.91
2018-08-17T04:20:43.318Z,101303.47
2018-08-17T04:23:11.939Z,101302.05
2018-08-17T04:25:40.594Z,101307.02
2018-08-17T04:28:09.288Z,101307.64
2018-08-17T04:30:37.948Z,101315.17
2018-08-17T04:33:06.569Z,101316.13
2018-08-17T04:35:35.317Z,101323.68
2018-08-17T04:38:03.919Z,101324.06
2018-08-17T04:40:32.544Z,101321.92
2018-08-17T04:43:01.182Z,101328.08
2018-08-17T04:45:29.828Z,101326.68
2018-08-17T04:47:58.491Z,101329.28
2018-08-17T04:50:27.113Z,101338.17
2018-08-17T04:52:55.777Z,101332.03
2018-08-17T04:55:24.404Z,101326.52
2018-08-17T04:57:53.056Z,101330.04
2018-08-17T05:00:21.707Z,101327.45
2018-08-17T05:02:50.352Z,101330.34
2018-08-17T05:05:18.993Z,101324.20
2018-08-17T05:07:47.632Z,101319.02
2018-08-17T05:10:16.260Z,101323.47
2018-08-17T05:12:44.904Z,101319.31
2018-08-17T05:15:13.527Z,101318.29
2018-08-17T05:17:42.208Z,101321.39
2018-08-17T05:20:10.852Z,101317.36
2018-08-17T05:22:39.518Z,101315.68
2018-08-17T05:25:08.180Z,101310.28
2018-08-17T05:27:36.910Z,101314.53
2018-08-17T05:30:05.909Z,101316.33
2018-08-17T05:32:34.585Z,101310.17
2018-08-17T05:35:10.100Z,101308.70
2018-08-17T05:37:38.775Z,101306.92
2018-08-17T05:40:08.328Z,101310.30
2018-08-17T05:42:37.556Z,101307.45
2018-08-17T05:45:07.644Z,101311.23
2018-08-17T05:47:36.363Z,101313.05
2018-08-17T05:50:05.544Z,101312.14
2018-08-17T05:52:34.243Z,101311.66
2018-08-17T05:55:02.888Z,101309.17
2018-08-17T05:57:31.551Z,101312.42
2018-08-17T06:00:00.219Z,101306.14
2018-08-17T06:02:28.883Z,101314.69
2018-08-17T06:04:57.535Z,101319.06
2018-08-17T06:07:26.220Z,101315.97
2018-08-17T06:09:54.863Z,101321.23
2018-08-17T06:12:23.611Z,101329.50
2018-08-17T06:14:52.269Z,101330.60
2018-08-17T06:17:20.931Z,101324.00
2018-08-17T06:19:49.569Z,101326.00
2018-08-17T06:22:20.721Z,101326.05
2018-08-17T06:24:50.650Z,101325.27
2018-08-17T06:27:19.393Z,101328.11
2018-08-17T06:29:48.246Z,101330.87
2018-08-17T06:32:16.928Z,101327.17
2018-08-17T06:34:45.586Z,101333.31
2018-08-17T06:37:14.323Z,101331.00
2018-08-17T06:39:42.972Z,101332.67
2018-08-17T06:42:11.627Z,101331.70
2018-08-17T06:44:40.255Z,101327.38
2018-08-17T06:47:08.922Z,101337.12
2018-08-17T06:49:37.548Z,101338.16
2018-08-17T06:52:06.283Z,101336.62
2018-08-17T06:54:38.044Z,101328.09
2018-08-17T06:57:06.818Z,101330.26
2018-08-17T06:59:35.474Z,101334.11
2018-08-17T07:02:04.155Z,101331.74
2018-08-17T07:04:32.838Z,101327.78
2018-08-17T07:07:01.479Z,101332.22
2018-08-17T07:09:30.163Z,101340.47
2018-08-17T07:11:58.830Z,101341.81
2018-08-17T07:14:27.490Z,101351.15
2018-08-17T07:16:56.135Z,101353.64
2018-08-17T07:19:24.836Z,101354.00
2018-08-17T07:21:53.463Z,101359.28
2018-08-17T07:24:22.098Z,101363.02
2018-08-17T07:26:50.764Z,101376.11
2018-08-17T07:29:19.428Z,101371.17
2018-08-17T07:31:48.061Z,101378.06
2018-08-17T07:34:16.706Z,101377.50
2018-08-17T07:36:45.327Z,101374.84
2018-08-17T07:39:13.998Z,101380.00
2018-08-17T07:41:42.717Z,101376.83
2018-08-17T07:44:11.339Z,101372.00
2018-08-17T07:46:39.998Z,101373.92
2018-08-17T07:49:08.770Z,101373.42
2018-08-17T07:51:37.453Z,101380.84
2018-08-17T07:54:06.102Z,101379.59
2018-08-17T07:56:34.714Z,101381.70
2018-08-17T07:59:03.453Z,101379.44
2018-08-17T08:01:32.084Z,101379.27
2018-08-17T08:04:00.741Z,101368.91
2018-08-17T08:06:29.363Z,101380.66
2018-08-17T08:08:58.035Z,101385.41
2018-08-17T08:11:26.642Z,101383.41
2018-08-17T08:13:55.276Z,101392.59
2018-08-17T08:16:23.899Z,101388.30
2018-08-17T08:18:52.571Z,101384.72
2018-08-17T08:21:21.204Z,101386.39
2018-08-17T08:23:49.862Z,101397.27
2018-08-17T08:26:18.500Z,101389.08
2018-08-17T08:28:47.166Z,101375.22
2018-08-17T08:31:15.862Z,101384.27
2018-08-17T08:33:44.549Z,101392.78
2018-08-17T08:36:13.216Z,101394.55
2018-08-17T08:38:41.875Z,101397.84
2018-08-17T08:41:10.499Z,101393.97
2018-08-17T08:43:39.146Z,101396.08
2018-08-17T08:46:07.796Z,101410.23
2018-08-17T08:48:36.439Z,101424.34
2018-08-17T08:51:05.084Z,101428.27
2018-08-17T08:53:33.735Z,101419.02
2018-08-17T08:56:02.465Z,101423.70
2018-08-17T08:58:31.082Z,101418.23
2018-08-17T09:00:59.752Z,101418.64
2018-08-17T09:03:28.374Z,101413.06
2018-08-17T09:05:57.036Z,101416.27
2018-08-17T09:08:25.666Z,101422.91
2018-08-17T09:10:54.329Z,101421.20
2018-08-17T09:13:22.991Z,101418.00
2018-08-17T09:15:51.655Z,101412.64
2018-08-17T09:18:20.303Z,101423.19
2018-08-17T09:20:49.051Z,101423.50
2018-08-17T09:23:17.676Z,101424.93
2018-08-17T09:25:46.308Z,101424.09
2018-08-17T09:28:14.931Z,101424.09
2018-08-17T09:30:43.573Z,101427.44
2018-08-17T09:33:12.191Z,101426.89
2018-08-17T09:35:40.846Z,101425.16
2018-08-17T09:38:09.480Z,101422.08
2018-08-17T09:40:38.115Z,101418.00
2018-08-17T09:43:06.988Z,101424.96
2018-08-17T09:45:35.625Z,101426.09
2018-08-17T09:48:04.264Z,101429.56
2018-08-17T09:50:32.968Z,101426.05
2018-08-17T09:53:01.576Z,101425.08
2018-08-17T09:55:30.382Z,101432.69
2018-08-17T09:57:58.991Z,101419.30
2018-08-17T10:00:33.040Z,101418.42
2018-08-17T10:03:06.901Z,101415.61
2018-08-17T10:05:41.711Z,101417.81
2018-08-17T10:08:15.459Z,101414.36
2018-08-17T10:10:44.567Z,101412.00
2018-08-17T10:13:13.249Z,101410.09
2018-08-17T10:15:41.922Z,101408.55
2018-08-17T10:18:10.611Z,101414.81
2018-08-17T10:20:39.324Z,101410.83
2018-08-17T10:23:13.520Z,101410.39
2018-08-17T10:25:42.247Z,101401.67
2018-08-17T10:28:10.856Z,101406.19
2018-08-17T10:30:39.504Z,101413.06
2018-08-17T10:33:08.144Z,101411.61
2018-08-17T10:35:37.215Z,101415.22
2018-08-17T10:38:07.092Z,101407.25
2018-08-17T10:40:35.852Z,101406.98
2018-08-17T10:43:06.163Z,101409.27
2018-08-17T10:45:35.203Z,101407.12
2018-08-17T10:48:03.830Z,101399.22
2018-08-17T10:50:33.701Z,101396.88
2018-08-17T10:53:03.585Z,101400.48
2018-08-17T10:55:39.851Z,101404.72
2018-08-17T10:58:09.908Z,101404.11
2018-08-17T11:00:38.598Z,101410.70
2018-08-17T11:03:07.266Z,101412.34
2018-08-17T11:05:35.938Z,101409.67
2018-08-17T11:08:04.644Z,101406.37
2018-08-17T11:10:33.292Z,101413.92
2018-08-17T11:13:01.904Z,101410.91
2018-08-17T11:15:30.542Z,101416.56
2018-08-17T11:17:59.208Z,101415.92
2018-08-17T11:20:27.905Z,101410.16
2018-08-17T11:22:56.562Z,101407.92
2018-08-17T11:25:25.259Z,101411.29
2018-08-17T11:27:53.949Z,101412.38
2018-08-17T11:30:22.589Z,101404.17
2018-08-17T11:32:51.255Z,101397.66
2018-08-17T11:35:19.912Z,101397.65
2018-08-17T11:37:48.566Z,101401.59
2018-08-17T11:40:17.217Z,101403.96
2018-08-17T11:42:49.104Z,101405.62
2018-08-17T11:45:24.566Z,101397.98
2018-08-17T11:47:53.993Z,101399.27
2018-08-17T11:50:23.919Z,101398.45
2018-08-17T11:52:57.699Z,101392.22
2018-08-17T11:55:27.743Z,101392.59
2018-08-17T11:57:56.701Z,101391.08
2018-08-17T12:00:25.700Z,101395.77
2018-08-17T12:02:54.352Z,101395.84
2018-08-17T12:05:22.987Z,101398.19
2018-08-17T12:07:51.647Z,101403.37
2018-08-17T12:10:20.281Z,101394.95
2018-08-17T12:12:48.940Z,101395.02
2018-08-17T12:15:18.424Z,101392.83
2018-08-17T12:17:47.099Z,101392.43
2018-08-17T12:20:15.707Z,101401.47
2018-08-17T12:22:44.348Z,101397.52
2018-08-17T12:25:13.091Z,101395.00
2018-08-17T12:27:46.936Z,101386.94
2018-08-17T12:30:15.556Z,101390.97
2018-08-17T12:32:44.203Z,101391.83
2018-08-17T12:35:12.826Z,101397.88
2018-08-17T12:37:41.464Z,101406.39
2018-08-17T12:40:10.218Z,101407.89
2018-08-17T12:42:39.438Z,101411.28
2018-08-17T12:45:13.391Z,101409.98
2018-08-17T12:47:42.030Z,101412.87
2018-08-17T12:50:10.644Z,101410.73
2018-08-17T12:52:39.283Z,101410.77
2018-08-17T12:55:07.914Z,101417.51
2018-08-17T12:57:42.219Z,101417.89
2018-08-17T13:00:11.908Z,101420.36
2018-08-17T13:02:40.604Z,101422.12
2018-08-17T13:05:09.297Z,101428.89
2018-08-17T13:07:37.948Z,101421.38
2018-08-17T13:10:06.616Z,101418.50
2018-08-17T13:12:35.270Z,101417.31
2018-08-17T13:15:04.001Z,101418.45
2018-08-17T13:17:37.903Z,101425.97
2018-08-17T13:20:06.912Z,101427.36
2018-08-17T13:22:35.595Z,101430.77
2018-08-17T13:25:04.310Z,101436.45
2018-08-17T13:27:32.939Z,101432.59
2018-08-17T13:30:01.574Z,101444.10
2018-08-17T13:32:30.231Z,101445.52
2018-08-17T13:34:58.855Z,101447.22
2018-08-17T13:37:27.502Z,101455.85
2018-08-17T13:39:56.172Z,101453.11
2018-08-17T13:42:24.901Z,101452.80
2018-08-17T13:44:53.460Z,101458.09
2018-08-17T13:47:22.095Z,101473.15
2018-08-17T13:49:50.715Z,101475.60
2018-08-17T13:52:19.375Z,101478.89
2018-08-17T13:54:47.980Z,101464.24
2018-08-17T13:57:16.623Z,101478.25
2018-08-17T13:59:45.315Z,101489.95
2018-08-17T14:02:14.012Z,101487.81
2018-08-17T14:04:42.645Z,101490.31
2018-08-17T14:07:11.275Z,101493.91
2018-08-17T14:09:39.981Z,101500.95
2018-08-17T14:12:09.269Z,101498.09
2018-08-17T14:14:37.923Z,101502.27
2018-08-17T14:17:07.070Z,101498.41
2018-08-17T14:19:36.040Z,101494.75
2018-08-17T14:22:04.900Z,101505.55
2018-08-17T14:24:33.561Z,101510.78
2018-08-17T14:27:02.214Z,101507.13
2018-08-17T14:29:30.873Z,101509.90
2018-08-17T14:31:59.516Z,101519.34
2018-08-17T14:34:28.221Z,101519.13
2018-08-17T14:36:56.886Z,101526.48
2018-08-17T14:39:25.538Z,101518.83
2018-08-17T14:41:58.031Z,101516.97
2018-08-17T14:44:27.379Z,101514.20
2018-08-17T14:46:56.191Z,101515.98
2018-08-17T14:49:25.504Z,101515.42
2018-08-17T14:51:54.182Z,101516.60
2018-08-17T14:54:22.898Z,101519.72
2018-08-17T14:56:51.560Z,101518.92
2018-08-17T14:59:20.237Z,101524.02
2018-08-17T15:01:48.858Z,101528.20
2018-08-17T15:04:17.533Z,101527.58
2018-08-17T15:06:46.208Z,101525.05
2018-08-17T15:09:15.468Z,101526.74
2018-08-17T15:11:44.752Z,101524.72
2018-08-17T15:14:14.394Z,101519.69
2018-08-17T15:16:43.692Z,101522.55
2018-08-17T15:19:12.599Z,101528.14
2018-08-17T15:21:41.648Z,101525.78
2018-08-17T15:24:11.058Z,101521.11
2018-08-17T15:26:39.821Z,101519.73
2018-08-17T15:29:08.524Z,101528.34
2018-08-17T15:31:37.171Z,101532.13
2018-08-17T15:34:05.851Z,101537.08
2018-08-17T15:36:34.499Z,101536.34
2018-08-17T15:39:03.280Z,101532.66
2018-08-17T15:41:31.951Z,101539.06
2018-08-17T15:44:00.588Z,101528.77
2018-08-17T15:46:31.472Z,101531.17
2018-08-17T15:49:00.116Z,101532.77
2018-08-17T15:51:28.769Z,101526.75
2018-08-17T15:53:57.407Z,101527.28
2018-08-17T15:56:26.022Z,101533.33
2018-08-17T15:58:54.693Z,101532.68
2018-08-17T16:01:23.366Z,101537.07
2018-08-17T16:03:52.331Z,101535.68
2018-08-17T16:06:20.951Z,101540.38
2018-08-17T16:08:49.595Z,101531.16
2018-08-17T16:11:18.244Z,101536.56
2018-08-17T16:13:46.888Z,101536.50
2018-08-17T16:16:15.561Z,101544.56
2018-08-17T16:18:44.245Z,101538.10
2018-08-17T16:21:12.911Z,101542.55
2018-08-17T16:23:41.575Z,101543.06
2018-08-17T16:26:10.228Z,101539.97
2018-08-17T16:28:38.864Z,101541.71
2018-08-17T16:31:07.509Z,101544.33
2018-08-17T16:33:36.148Z,101546.09
2018-08-17T16:36:04.909Z,101535.70
2018-08-17T16:38:37.727Z,101547.59
2018-08-17T16:41:06.680Z,101545.84
2018-08-17T16:43:42.790Z,101551.09
2018-08-17T16:46:11.740Z,101548.67
2018-08-17T16:48:41.347Z,101549.55
2018-08-17T16:51:10.280Z,101549.27
2018-08-17T16:53:38.901Z,101555.73
2018-08-17T16:56:07.596Z,101552.98
2018-08-17T16:58:36.233Z,101553.95
2018-08-17T17:01:04.950Z,101548.48
2018-08-17T17:03:33.591Z,101550.77
2018-08-17T17:06:04.359Z,101545.36
2018-08-17T17:08:33.341Z,101548.70
2018-08-17T17:11:02.779Z,101550.44
2018-08-17T17:13:31.423Z,101557.02
2018-08-17T17:16:00.107Z,101550.17
2018-08-17T17:18:28.823Z,101549.18
2018-08-17T17:20:57.544Z,101546.48
2018-08-17T17:23:26.151Z,101551.26
2018-08-17T17:25:54.843Z,101553.67
2018-08-17T17:28:23.569Z,101555.31
2018-08-17T17:30:53.032Z,101563.01
2018-08-17T17:33:22.143Z,101565.28
2018-08-17T17:35:50.871Z,101558.38
2018-08-17T17:38:19.492Z,101560.42
2018-08-17T17:40:48.219Z,101564.48
2018-08-17T17:43:16.883Z,101559.92
2018-08-17T17:45:45.561Z,101571.20
2018-08-17T17:48:14.218Z,101570.04
2018-08-17T17:50:42.880Z,101570.32
2018-08-17T17:53:11.516Z,101573.89
2018-08-17T17:55:45.384Z,101580.41
2018-08-17T17:58:14.612Z,101582.94
2018-08-17T18:00:53.024Z,101584.97
2018-08-17T18:03:21.685Z,101589.86
2018-08-17T18:05:50.351Z,101581.70
2018-08-17T18:08:19.347Z,101586.88
2018-08-17T18:10:48.704Z,101590.99
2018-08-17T18:13:17.539Z,101593.97
2018-08-17T18:15:46.252Z,101592.54
2018-08-17T18:18:14.939Z,101591.31
2018-08-17T18:20:43.628Z,101592.98
2018-08-17T18:23:12.245Z,101594.91
2018-08-17T18:25:40.901Z,101590.77
2018-08-17T18:28:09.900Z,101603.13
2018-08-17T18:30:38.623Z,101596.20
2018-08-17T18:33:07.561Z,101589.39
2018-08-17T18:35:36.204Z,101592.80
2018-08-17T18:38:04.888Z,101593.72
2018-08-17T18:40:33.520Z,101598.23
2018-08-17T18:43:02.186Z,101608.89
2018-08-17T18:45:30.864Z,101609.83
2018-08-17T18:47:59.539Z,101615.23
2018-08-17T18:50:28.170Z,101619.72
2018-08-17T18:52:56.867Z,101622.52
2018-08-17T18:55:25.530Z,101628.42
2018-08-17T18:57:54.195Z,101631.57
2018-08-17T19:00:22.823Z,101642.47
2018-08-17T19:02:51.484Z,101639.20
2018-08-17T19:05:20.152Z,101643.02
2018-08-17T19:07:48.818Z,101642.52
2018-08-17T19:10:17.473Z,101645.09
2018-08-17T19:12:46.152Z,101646.58
2018-08-17T19:15:14.778Z,101653.45
2018-08-17T19:17:43.508Z,101643.98
2018-08-17T19:20:13.432Z,101651.37
2018-08-17T19:22:45.810Z,101651.55
2018-08-17T19:25:15.752Z,101651.13
2018-08-17T19:27:44.887Z,101661.49
2018-08-17T19:30:27.106Z,101656.38
2018-08-17T19:32:57.229Z,101662.84
2018-08-17T19:35:25.891Z,101665.94
2018-08-17T19:37:54.594Z,101660.42
2018-08-17T19:40:23.658Z,101662.13
2018-08-17T19:42:52.339Z,101665.44
2018-08-17T19:45:21.383Z,101667.06
2018-08-17T19:47:50.255Z,101662.36
2018-08-17T19:50:18.963Z,101669.34
2018-08-17T19:52:47.627Z,101663.68
2018-08-17T19:55:16.516Z,101670.75
2018-08-17T19:57:45.180Z,101674.27
2018-08-17T20:00:14.331Z,101674.94
2018-08-17T20:02:43.215Z,101678.06
2018-08-17T20:05:11.894Z,101681.41
2018-08-17T20:07:40.692Z,101684.98
2018-08-17T20:10:11.082Z,101687.47
2018-08-17T20:12:39.783Z,101694.59
2018-08-17T20:15:08.946Z,101692.14
2018-08-17T20:17:38.215Z,101697.95
2018-08-17T20:20:09.612Z,101697.36
2018-08-17T20:22:38.270Z,101707.34
2018-08-17T20:25:14.079Z,101710.41
2018-08-17T20:27:43.066Z,101717.39
2018-08-17T20:30:17.109Z,101710.50
2018-08-17T20:32:46.285Z,101716.02
2018-08-17T20:35:14.944Z,101719.51
2018-08-17T20:37:46.944Z,101724.31
2018-08-17T20:40:15.907Z,101723.72
2018-08-17T20:42:44.649Z,101721.81
2018-08-17T20:45:13.302Z,101725.47
2018-08-17T20:47:42.641Z,101729.92
2018-08-17T20:50:13.463Z,101734.70
2018-08-17T20:52:49.261Z,101734.09
2018-08-17T20:55:18.359Z,101738.03
2018-08-17T20:57:49.859Z,101741.09
2018-08-17T21:00:18.733Z,101743.23
2018-08-17T21:02:47.664Z,101745.64
2018-08-17T21:05:16.526Z,101746.06
2018-08-17T21:07:45.783Z,101749.35
2018-08-17T21:10:14.415Z,101752.11
2018-08-17T21:12:43.067Z,101749.23
2018-08-17T21:15:11.703Z,101750.84
2018-08-17T21:17:40.374Z,101756.33
2018-08-17T21:20:09.043Z,101757.29
2018-08-17T21:22:37.706Z,101761.48
2018-08-17T21:25:06.589Z,101757.72
2018-08-17T21:27:35.345Z,101753.70
2018-08-17T21:30:04.529Z,101759.95
2018-08-17T21:32:33.239Z,101764.92
2018-08-17T21:35:01.959Z,101766.38
2018-08-17T21:37:30.645Z,101765.88
2018-08-17T21:39:59.288Z,101762.60
2018-08-17T21:42:27.981Z,101766.38
2018-08-17T21:44:56.688Z,101769.36
2018-08-17T21:47:25.326Z,101766.91
2018-08-17T21:50:00.215Z,101768.52
2018-08-17T21:52:29.210Z,101772.40
2018-08-17T21:54:57.888Z,101777.43
2018-08-17T21:57:26.519Z,101779.84
2018-08-17T21:59:55.403Z,101781.70
2018-08-17T22:02:24.188Z,101780.08
2018-08-17T22:04:52.799Z,101786.11
2018-08-17T22:07:23.283Z,101788.02
2018-08-17T22:09:52.831Z,101786.73
2018-08-17T22:12:21.779Z,101788.28
2018-08-17T22:14:50.873Z,101793.95
2018-08-17T22:17:31.650Z,101797.62
2018-08-17T22:20:00.537Z,101799.40
2018-08-17T22:22:29.226Z,101795.46
2018-08-17T22:24:58.985Z,101800.03
2018-08-17T22:27:28.890Z,101797.28
2018-08-17T22:29:58.671Z,101798.25
2018-08-17T22:32:27.334Z,101792.09
2018-08-17T22:34:56.247Z,101796.42
2018-08-17T22:37:24.886Z,101798.12
2018-08-17T22:39:53.568Z,101793.34
2018-08-17T22:42:23.112Z,101801.80
2018-08-17T22:44:52.091Z,101803.32
2018-08-17T22:47:22.922Z,101800.72
2018-08-17T22:49:52.461Z,101811.95
2018-08-17T22:52:21.255Z,101817.64
2018-08-17T22:54:56.018Z,101816.98
2018-08-17T22:57:25.309Z,101824.88
2018-08-17T23:00:17.409Z,101823.69
2018-08-17T23:02:47.064Z,101826.11
2018-08-17T23:05:18.979Z,101824.95
2018-08-17T23:07:47.639Z,101817.11
2018-08-17T23:10:19.126Z,101821.08
2018-08-17T23:12:48.841Z,101817.09
2018-08-17T23:15:17.528Z,101819.19
2018-08-17T23:17:51.166Z,101825.66
2018-08-17T23:20:25.223Z,101825.08
2018-08-17T23:22:55.223Z,101829.95
2018-08-17T23:25:23.895Z,101828.95
2018-08-17T23:27:52.942Z,101823.48
2018-08-17T23:30:21.612Z,101830.85
2018-08-17T23:32:50.435Z,101829.95
2018-08-17T23:35:19.102Z,101832.84
2018-08-17T23:37:47.751Z,101839.02
2018-08-17T23:40:16.435Z,101833.45
2018-08-17T23:42:45.092Z,101826.56
2018-08-17T23:45:15.427Z,101832.77
2018-08-17T23:47:44.157Z,101828.92
2018-08-17T23:50:13.852Z,101832.39
2018-08-17T23:52:42.741Z,101838.04
2018-08-17T23:55:13.944Z,101840.52
2018-08-17T23:57:42.606Z,101832.91
